Time;durP1;ratioP1;P1;durP2;ratioP2;P2;SDS_P1;SDS_P2;PMS_P1;PMS_P2;Temp;Humidity;BMP_temperature;BMP_pressure;BME280_temperature;BME280_humidity;BME280_pressure;Samples;Min_cycle;Max_cycle;Signal;HPM_P1;HPM_P2
2021/06/13 00:09:07;;;;;;;11.87;3.70;;;;;;;11.96;100.00;99903.81;713976;1206;113582;-77
2021/06/13 00:24:10;;;;;;;8.93;3.25;;;;;;;11.81;100.00;99927.14;714494;1200;113835;-77
2021/06/13 00:39:13;;;;;;;10.53;3.68;;;;;;;11.75;100.00;99939.09;714166;1178;113526;-78
2021/06/13 00:54:15;;;;;;;9.10;3.65;;;;;;;11.86;100.00;99945.10;714816;1200;114156;-77
2021/06/13 01:09:23;;;;;;;8.20;4.70;;;;;;;11.95;100.00;99944.22;714566;1179;114804;-79
2021/06/13 01:24:46;;;;;;;8.30;3.30;;;;;;;11.93;100.00;99935.61;714773;1202;113768;-77
2021/06/13 01:39:54;;;;;;;9.47;3.80;;;;;;;11.87;100.00;99946.76;714454;1206;113668;-77
2021/06/13 01:54:58;;;;;;;9.15;3.68;;;;;;;11.83;100.00;99957.55;714198;1202;115038;-77
2021/06/13 02:10:04;;;;;;;8.90;3.43;;;;;;;11.82;100.00;99979.58;714105;1183;115397;-76
2021/06/13 02:25:09;;;;;;;7.95;3.48;;;;;;;11.84;100.00;99995.20;714209;1179;113857;-76
2021/06/13 02:40:13;;;;;;;8.30;2.98;;;;;;;11.84;100.00;100005.70;714211;1200;114096;-75
2021/06/13 02:55:21;;;;;;;9.63;4.43;;;;;;;11.89;100.00;100023.64;714360;1200;115197;-76
2021/06/13 03:10:23;;;;;;;13.33;3.68;;;;;;;11.86;100.00;100031.83;714292;1202;115325;-77
2021/06/13 03:25:27;;;;;;;11.57;3.47;;;;;;;12.01;100.00;100040.89;714070;1201;115368;-76
2021/06/13 03:40:30;;;;;;;10.20;3.78;;;;;;;12.08;100.00;100060.33;714213;1204;114134;-76
2021/06/13 03:55:32;;;;;;;9.90;2.70;;;;;;;12.28;100.00;100086.48;714133;1203;113970;-76
2021/06/13 04:10:36;;;;;;;10.85;3.18;;;;;;;12.49;100.00;100101.94;714113;1200;114341;-76
2021/06/13 04:25:38;;;;;;;9.45;3.08;;;;;;;12.48;100.00;100108.17;714950;1203;114491;-77
2021/06/13 04:40:41;;;;;;;12.23;4.13;;;;;;;12.97;100.00;100118.23;714398;1203;115357;-78
2021/06/13 04:55:51;;;;;;;15.40;3.40;;;;;;;13.27;100.00;100129.28;713909;1201;114986;-77
2021/06/13 05:10:54;;;;;;;12.15;3.58;;;;;;;13.70;100.00;100135.44;716670;1167;114350;-75
2021/06/13 05:25:58;;;;;;;9.90;3.73;;;;;;;14.29;100.00;100150.41;713315;1202;114084;-75
2021/06/13 05:41:00;;;;;;;10.40;3.33;;;;;;;14.50;100.00;100146.48;713618;1203;114387;-76
2021/06/13 05:56:02;;;;;;;6.05;2.65;;;;;;;14.64;100.00;100175.71;713553;1203;114361;-75
2021/06/13 06:11:06;;;;;;;18.93;4.73;;;;;;;15.01;100.00;100181.48;713341;1203;113841;-75
2021/06/13 06:26:08;;;;;;;12.57;4.57;;;;;;;15.55;100.00;100193.28;713393;1202;118389;-75
2021/06/13 06:41:10;;;;;;;12.23;3.68;;;;;;;15.65;100.00;100204.46;713728;1203;115695;-73
2021/06/13 06:56:13;;;;;;;11.50;3.43;;;;;;;16.13;100.00;100242.33;713948;1201;114669;-75
2021/06/13 07:11:15;;;;;;;13.85;4.05;;;;;;;16.01;100.00;100262.23;713938;1205;115494;-74
2021/06/13 07:26:20;;;;;;;9.17;3.33;;;;;;;16.17;100.00;100279.88;713979;1202;114833;-78
2021/06/13 07:41:23;;;;;;;17.27;3.67;;;;;;;16.55;100.00;100305.65;714039;1203;114416;-77
2021/06/13 07:56:26;;;;;;;9.10;3.60;;;;;;;16.85;100.00;100309.27;713898;1205;114428;-76
2021/06/13 08:11:30;;;;;;;10.65;3.45;;;;;;;17.27;100.00;100337.16;713989;1202;115552;-78
2021/06/13 08:26:36;;;;;;;7.85;2.58;;;;;;;17.84;100.00;100356.22;714410;1203;114443;-79
2021/06/13 08:41:40;;;;;;;7.87;3.20;;;;;;;17.54;97.16;100389.81;714707;1202;113975;-77
2021/06/13 08:56:42;;;;;;;12.73;4.48;;;;;;;17.60;95.77;100402.38;714068;1178;113665;-78
2021/06/13 09:12:04;;;;;;;10.00;2.97;;;;;;;17.79;94.48;100407.19;714100;1202;115293;-76
2021/06/13 09:27:09;;;;;;;10.00;3.40;;;;;;;18.93;91.54;100426.58;714377;1202;113818;-76
2021/06/13 09:42:11;;;;;;;8.80;2.50;;;;;;;18.90;85.52;100432.27;714317;1182;113929;-77
2021/06/13 09:57:13;;;;;;;7.57;2.60;;;;;;;20.31;83.25;100445.02;715530;1180;113696;-78
2021/06/13 10:12:19;;;;;;;10.60;3.47;;;;;;;20.23;80.76;100458.47;714209;1202;113994;-79
2021/06/13 10:27:21;;;;;;;11.63;2.68;;;;;;;19.33;81.49;100480.18;714381;1202;114949;-77
2021/06/13 10:42:24;;;;;;;4.35;2.50;;;;;;;19.67;81.43;100499.16;714559;1205;113796;-78
2021/06/13 10:57:36;;;;;;;6.93;2.20;;;;;;;21.04;76.55;100505.89;714059;1202;113897;-78
2021/06/13 11:12:55;;;;;;;5.10;2.50;;;;;;;21.76;72.37;100524.17;714401;1202;114960;-80
2021/06/13 11:28:27;;;;;;;8.35;2.50;;;;;;;21.34;72.05;100529.61;713352;1203;114631;-79
2021/06/13 11:43:37;;;;;;;9.28;1.93;;;;;;;21.17;70.89;100550.47;715128;1203;114014;-78
2021/06/13 11:58:39;;;;;;;8.23;2.23;;;;;;;21.91;69.12;100538.16;717951;1205;113909;-73
2021/06/13 12:13:41;;;;;;;6.65;2.10;;;;;;;21.77;69.09;100561.38;713989;1202;115062;-78
2021/06/13 12:28:43;;;;;;;7.45;2.20;;;;;;;22.66;65.04;100574.56;714276;1205;113512;-76
2021/06/13 12:43:48;;;;;;;8.70;2.40;;;;;;;21.33;67.89;100597.33;715176;1177;113727;-78
2021/06/13 12:58:53;;;;;;;3.93;1.47;;;;;;;23.01;64.42;100597.52;714875;1202;114365;-78
2021/06/13 13:13:59;;;;;;;5.53;1.88;;;;;;;23.40;63.88;100611.84;714507;1203;113920;-75
2021/06/13 13:29:01;;;;;;;5.37;2.17;;;;;;;23.59;60.01;100602.06;714372;1203;113639;-76
2021/06/13 13:44:06;;;;;;;6.00;2.30;;;;;;;25.16;59.86;100615.70;714270;1203;113676;-75
2021/06/13 13:59:09;;;;;;;4.57;1.90;;;;;;;24.21;59.30;100634.47;714604;1202;114554;-75
2021/06/13 14:14:11;;;;;;;4.27;1.83;;;;;;;23.86;59.82;100642.92;714149;1202;114144;-76
2021/06/13 14:29:13;;;;;;;4.73;1.90;;;;;;;23.24;60.13;100643.39;714310;1202;113314;-77
2021/06/13 14:44:15;;;;;;;5.98;2.18;;;;;;;23.08;60.52;100633.09;714319;1201;113792;-78
2021/06/13 14:59:17;;;;;;;3.98;1.48;;;;;;;23.06;60.71;100656.57;714351;1203;114452;-77
2021/06/13 15:14:19;;;;;;;4.37;1.23;;;;;;;22.33;59.72;100654.70;714974;1203;113650;-77
2021/06/13 15:29:21;;;;;;;9.00;3.57;;;;;;;21.32;60.98;100674.90;713038;1202;114970;-79
2021/06/13 15:44:26;;;;;;;4.48;1.98;;;;;;;22.08;62.02;100676.67;714236;1195;113949;-81
2021/06/13 15:59:32;;;;;;;4.17;1.30;;;;;;;21.93;59.43;100685.67;716992;1201;115219;-78
2021/06/13 16:14:39;;;;;;;7.98;2.00;;;;;;;22.28;59.62;100703.43;714877;1202;115066;-78
2021/06/13 16:29:41;;;;;;;5.83;2.90;;;;;;;21.49;60.13;100723.44;713591;1177;114438;-80
2021/06/13 16:44:44;;;;;;;7.57;3.10;;;;;;;21.50;60.89;100731.23;713819;1203;113562;-78
2021/06/13 16:59:47;;;;;;;4.25;1.90;;;;;;;20.85;60.80;100746.56;714004;1201;113528;-84
2021/06/13 17:14:52;;;;;;;5.77;2.10;;;;;;;20.49;60.36;100766.09;713740;1202;115559;-80
2021/06/13 17:29:55;;;;;;;5.65;2.55;;;;;;;20.25;61.53;100768.89;713845;1177;113353;-80
2021/06/13 17:44:59;;;;;;;5.35;1.70;;;;;;;20.02;62.65;100787.68;714041;1202;113472;-80
2021/06/13 18:00:02;;;;;;;5.80;2.30;;;;;;;19.77;63.39;100795.92;713902;1202;115439;-78
2021/06/13 18:15:06;;;;;;;4.80;2.08;;;;;;;19.39;64.83;100809.27;713872;1202;115090;-77
2021/06/13 18:30:09;;;;;;;7.33;2.53;;;;;;;19.02;66.83;100836.69;712546;1172;198222;-77
2021/06/13 18:45:12;;;;;;;8.65;3.00;;;;;;;18.44;68.34;100845.78;714254;1201;114548;-79
2021/06/13 19:00:17;;;;;;;4.78;2.60;;;;;;;18.05;69.97;100870.48;714104;1203;115432;-77
2021/06/13 19:15:19;;;;;;;5.25;2.90;;;;;;;17.30;72.49;100893.59;713609;1205;115591;-75
2021/06/13 19:30:27;;;;;;;7.48;2.68;;;;;;;16.70;75.43;100899.06;713745;1177;115258;-77
2021/06/13 19:45:32;;;;;;;9.18;4.20;;;;;;;16.22;77.65;100915.40;713787;1203;114254;-78
2021/06/13 20:00:34;;;;;;;5.03;2.33;;;;;;;15.90;80.00;100921.30;713710;1202;114540;-77
2021/06/13 20:15:36;;;;;;;9.97;5.23;;;;;;;15.43;81.77;100925.05;713953;1202;115052;-76
2021/06/13 20:30:41;;;;;;;5.60;2.13;;;;;;;15.12;83.66;100928.03;713787;1202;114550;-75
2021/06/13 20:45:44;;;;;;;10.23;5.53;;;;;;;14.87;85.98;100940.15;714252;1201;114034;-76
2021/06/13 21:00:47;;;;;;;27.45;10.70;;;;;;;14.73;87.14;100944.95;713429;1203;115360;-76
2021/06/13 21:15:50;;;;;;;9.20;3.63;;;;;;;14.58;87.83;100960.42;714140;1177;114161;-77
2021/06/13 21:30:52;;;;;;;20.45;4.70;;;;;;;14.46;89.92;100983.52;714276;1202;113830;-77
2021/06/13 21:45:56;;;;;;;5.98;3.15;;;;;;;14.21;91.29;100982.31;714284;1202;115728;-78
2021/06/13 22:00:58;;;;;;;7.00;2.80;;;;;;;14.07;93.42;100999.42;713643;1202;115305;-77
2021/06/13 22:16:01;;;;;;;8.15;2.50;;;;;;;13.87;94.23;101006.53;713526;1203;114086;-78
2021/06/13 22:31:03;;;;;;;8.33;2.40;;;;;;;13.57;95.33;100994.30;714229;1203;114290;-78
2021/06/13 22:46:06;;;;;;;10.87;2.87;;;;;;;13.34;97.77;100999.77;714007;1203;114867;-78
2021/06/13 23:01:08;;;;;;;9.83;2.95;;;;;;;13.25;98.11;101008.48;714104;1203;114202;-78
2021/06/13 23:16:11;;;;;;;8.80;2.60;;;;;;;13.15;99.98;101006.66;714131;1192;113832;-78
2021/06/13 23:31:13;;;;;;;8.00;2.53;;;;;;;13.13;100.00;101000.71;712786;1202;113672;-78
2021/06/13 23:46:15;;;;;;;6.33;2.80;;;;;;;12.85;100.00;101002.27;713856;1202;114047;-80
